sensor_id;sensor_type;location;lat;lon;timestamp;P1;durP1;ratioP1;P2;durP2;ratioP2
18796;SDS011;9526;52.612;13.300;2023-06-14T00:01:33;2.17;;;1.70;;
18796;SDS011;9526;52.612;13.300;2023-06-14T00:03:57;2.22;;;1.65;;
18796;SDS011;9526;52.612;13.300;2023-06-14T00:06:21;2.17;;;1.63;;
18796;SDS011;9526;52.612;13.300;2023-06-14T00:08:46;2.30;;;1.80;;
18796;SDS011;9526;52.612;13.300;2023-06-14T00:11:09;2.17;;;1.75;;
18796;SDS011;9526;52.612;13.300;2023-06-14T00:13:33;2.47;;;1.75;;
18796;SDS011;9526;52.612;13.300;2023-06-14T00:15:58;2.85;;;1.52;;
18796;SDS011;9526;52.612;13.300;2023-06-14T00:18:22;2.58;;;1.90;;
18796;SDS011;9526;52.612;13.300;2023-06-14T00:20:46;2.20;;;1.73;;
18796;SDS011;9526;52.612;13.300;2023-06-14T00:23:10;2.28;;;1.80;;
18796;SDS011;9526;52.612;13.300;2023-06-14T00:25:34;4.13;;;2.00;;
18796;SDS011;9526;52.612;13.300;2023-06-14T00:27:58;2.30;;;1.90;;
18796;SDS011;9526;52.612;13.300;2023-06-14T00:30:21;3.35;;;1.92;;
18796;SDS011;9526;52.612;13.300;2023-06-14T00:32:47;2.20;;;1.80;;
18796;SDS011;9526;52.612;13.300;2023-06-14T00:35:11;3.13;;;1.70;;
18796;SDS011;9526;52.612;13.300;2023-06-14T00:37:36;2.70;;;1.52;;
18796;SDS011;9526;52.612;13.300;2023-06-14T00:40:00;3.25;;;1.98;;
18796;SDS011;9526;52.612;13.300;2023-06-14T00:42:24;2.13;;;1.80;;
18796;SDS011;9526;52.612;13.300;2023-06-14T00:44:49;2.17;;;1.80;;
18796;SDS011;9526;52.612;13.300;2023-06-14T00:47:12;2.60;;;1.80;;
18796;SDS011;9526;52.612;13.300;2023-06-14T00:49:37;2.28;;;1.95;;
18796;SDS011;9526;52.612;13.300;2023-06-14T00:52:01;1.80;;;1.52;;
18796;SDS011;9526;52.612;13.300;2023-06-14T00:54:26;2.13;;;1.70;;
18796;SDS011;9526;52.612;13.300;2023-06-14T00:56:50;3.97;;;1.80;;
18796;SDS011;9526;52.612;13.300;2023-06-14T00:59:13;4.80;;;2.00;;
18796;SDS011;9526;52.612;13.300;2023-06-14T01:01:38;2.13;;;1.80;;
18796;SDS011;9526;52.612;13.300;2023-06-14T01:04:02;3.72;;;1.92;;
18796;SDS011;9526;52.612;13.300;2023-06-14T01:06:32;2.53;;;1.85;;
18796;SDS011;9526;52.612;13.300;2023-06-14T01:09:09;2.58;;;1.67;;
18796;SDS011;9526;52.612;13.300;2023-06-14T01:11:44;3.17;;;1.83;;
18796;SDS011;9526;52.612;13.300;2023-06-14T01:14:14;3.63;;;2.15;;
18796;SDS011;9526;52.612;13.300;2023-06-14T01:16:40;4.15;;;1.80;;
18796;SDS011;9526;52.612;13.300;2023-06-14T01:19:05;2.67;;;2.00;;
18796;SDS011;9526;52.612;13.300;2023-06-14T01:21:35;2.55;;;2.00;;
18796;SDS011;9526;52.612;13.300;2023-06-14T01:24:05;2.80;;;1.88;;
18796;SDS011;9526;52.612;13.300;2023-06-14T01:26:30;2.55;;;1.88;;
18796;SDS011;9526;52.612;13.300;2023-06-14T01:28:54;2.92;;;2.00;;
18796;SDS011;9526;52.612;13.300;2023-06-14T01:31:20;2.88;;;2.00;;
18796;SDS011;9526;52.612;13.300;2023-06-14T01:33:44;2.63;;;1.90;;
18796;SDS011;9526;52.612;13.300;2023-06-14T01:36:10;3.15;;;1.85;;
18796;SDS011;9526;52.612;13.300;2023-06-14T01:38:35;4.15;;;1.98;;
18796;SDS011;9526;52.612;13.300;2023-06-14T01:41:01;3.90;;;2.38;;
18796;SDS011;9526;52.612;13.300;2023-06-14T01:43:26;2.38;;;1.90;;
18796;SDS011;9526;52.612;13.300;2023-06-14T01:45:52;3.47;;;2.03;;
18796;SDS011;9526;52.612;13.300;2023-06-14T01:48:18;6.05;;;2.13;;
18796;SDS011;9526;52.612;13.300;2023-06-14T01:50:42;2.28;;;1.80;;
18796;SDS011;9526;52.612;13.300;2023-06-14T01:53:06;2.65;;;1.90;;
18796;SDS011;9526;52.612;13.300;2023-06-14T01:55:31;3.15;;;2.10;;
18796;SDS011;9526;52.612;13.300;2023-06-14T01:58:02;2.97;;;2.30;;
18796;SDS011;9526;52.612;13.300;2023-06-14T02:00:26;2.22;;;1.73;;
18796;SDS011;9526;52.612;13.300;2023-06-14T02:02:50;2.88;;;1.90;;
18796;SDS011;9526;52.612;13.300;2023-06-14T02:05:14;3.88;;;2.33;;
18796;SDS011;9526;52.612;13.300;2023-06-14T02:07:42;3.63;;;2.42;;
18796;SDS011;9526;52.612;13.300;2023-06-14T02:10:08;3.75;;;2.30;;
18796;SDS011;9526;52.612;13.300;2023-06-14T02:12:31;3.33;;;1.95;;
18796;SDS011;9526;52.612;13.300;2023-06-14T02:14:56;3.67;;;2.30;;
18796;SDS011;9526;52.612;13.300;2023-06-14T02:17:20;4.63;;;2.30;;
18796;SDS011;9526;52.612;13.300;2023-06-14T02:19:44;4.03;;;2.38;;
18796;SDS011;9526;52.612;13.300;2023-06-14T02:22:08;5.30;;;2.33;;
18796;SDS011;9526;52.612;13.300;2023-06-14T02:24:32;3.47;;;2.67;;
18796;SDS011;9526;52.612;13.300;2023-06-14T02:26:57;2.85;;;2.30;;
18796;SDS011;9526;52.612;13.300;2023-06-14T02:29:20;4.63;;;2.28;;
18796;SDS011;9526;52.612;13.300;2023-06-14T02:31:45;3.55;;;2.30;;
18796;SDS011;9526;52.612;13.300;2023-06-14T02:34:10;3.53;;;2.30;;
18796;SDS011;9526;52.612;13.300;2023-06-14T02:36:34;3.85;;;2.38;;
18796;SDS011;9526;52.612;13.300;2023-06-14T02:39:03;4.47;;;2.20;;
18796;SDS011;9526;52.612;13.300;2023-06-14T02:41:27;2.97;;;2.35;;
18796;SDS011;9526;52.612;13.300;2023-06-14T02:43:51;4.28;;;2.33;;
18796;SDS011;9526;52.612;13.300;2023-06-14T02:46:14;3.40;;;2.15;;
18796;SDS011;9526;52.612;13.300;2023-06-14T02:48:40;4.15;;;2.20;;
18796;SDS011;9526;52.612;13.300;2023-06-14T02:51:03;3.90;;;2.63;;
18796;SDS011;9526;52.612;13.300;2023-06-14T02:53:28;5.20;;;2.45;;
18796;SDS011;9526;52.612;13.300;2023-06-14T02:55:52;3.53;;;2.47;;
18796;SDS011;9526;52.612;13.300;2023-06-14T02:58:17;4.55;;;2.60;;
18796;SDS011;9526;52.612;13.300;2023-06-14T03:00:40;4.28;;;2.65;;
18796;SDS011;9526;52.612;13.300;2023-06-14T03:03:05;3.65;;;2.28;;
18796;SDS011;9526;52.612;13.300;2023-06-14T03:05:36;3.60;;;2.45;;
18796;SDS011;9526;52.612;13.300;2023-06-14T03:08:02;3.58;;;2.47;;
18796;SDS011;9526;52.612;13.300;2023-06-14T03:10:27;3.35;;;2.35;;
18796;SDS011;9526;52.612;13.300;2023-06-14T03:12:53;5.72;;;2.45;;
18796;SDS011;9526;52.612;13.300;2023-06-14T03:15:16;2.88;;;2.28;;
18796;SDS011;9526;52.612;13.300;2023-06-14T03:17:42;5.30;;;2.50;;
18796;SDS011;9526;52.612;13.300;2023-06-14T03:20:09;3.63;;;2.30;;
18796;SDS011;9526;52.612;13.300;2023-06-14T03:22:35;3.83;;;2.65;;
18796;SDS011;9526;52.612;13.300;2023-06-14T03:24:59;3.25;;;2.40;;
18796;SDS011;9526;52.612;13.300;2023-06-14T03:27:29;4.03;;;2.60;;
18796;SDS011;9526;52.612;13.300;2023-06-14T03:29:53;3.78;;;2.38;;
18796;SDS011;9526;52.612;13.300;2023-06-14T03:32:17;4.32;;;2.80;;
18796;SDS011;9526;52.612;13.300;2023-06-14T03:34:41;6.60;;;2.70;;
18796;SDS011;9526;52.612;13.300;2023-06-14T03:37:13;6.07;;;2.90;;
18796;SDS011;9526;52.612;13.300;2023-06-14T03:39:38;5.47;;;2.92;;
18796;SDS011;9526;52.612;13.300;2023-06-14T03:42:12;4.28;;;2.63;;
18796;SDS011;9526;52.612;13.300;2023-06-14T03:44:37;3.83;;;2.70;;
18796;SDS011;9526;52.612;13.300;2023-06-14T03:47:02;5.15;;;3.00;;
18796;SDS011;9526;52.612;13.300;2023-06-14T03:49:26;5.53;;;3.00;;
18796;SDS011;9526;52.612;13.300;2023-06-14T03:51:50;4.93;;;3.00;;
18796;SDS011;9526;52.612;13.300;2023-06-14T03:54:16;4.40;;;3.08;;
18796;SDS011;9526;52.612;13.300;2023-06-14T03:57:02;6.57;;;3.25;;
18796;SDS011;9526;52.612;13.300;2023-06-14T03:59:26;4.55;;;3.30;;
18796;SDS011;9526;52.612;13.300;2023-06-14T04:01:50;5.45;;;3.00;;
18796;SDS011;9526;52.612;13.300;2023-06-14T04:04:14;9.13;;;3.33;;
18796;SDS011;9526;52.612;13.300;2023-06-14T04:06:40;4.47;;;3.20;;
18796;SDS011;9526;52.612;13.300;2023-06-14T04:09:05;5.38;;;3.30;;
18796;SDS011;9526;52.612;13.300;2023-06-14T04:11:29;7.68;;;3.42;;
18796;SDS011;9526;52.612;13.300;2023-06-14T04:13:55;7.50;;;3.60;;
18796;SDS011;9526;52.612;13.300;2023-06-14T04:16:19;4.43;;;3.25;;
18796;SDS011;9526;52.612;13.300;2023-06-14T04:18:43;5.20;;;3.45;;
18796;SDS011;9526;52.612;13.300;2023-06-14T04:21:08;5.38;;;3.38;;
18796;SDS011;9526;52.612;13.300;2023-06-14T04:23:31;5.07;;;3.47;;
18796;SDS011;9526;52.612;13.300;2023-06-14T04:25:56;5.22;;;3.25;;
18796;SDS011;9526;52.612;13.300;2023-06-14T04:28:23;6.45;;;3.20;;
18796;SDS011;9526;52.612;13.300;2023-06-14T04:30:52;6.05;;;3.53;;
18796;SDS011;9526;52.612;13.300;2023-06-14T04:33:17;4.97;;;3.55;;
18796;SDS011;9526;52.612;13.300;2023-06-14T04:35:41;7.65;;;3.95;;
18796;SDS011;9526;52.612;13.300;2023-06-14T04:38:10;4.18;;;3.00;;
18796;SDS011;9526;52.612;13.300;2023-06-14T04:40:33;4.35;;;3.10;;
18796;SDS011;9526;52.612;13.300;2023-06-14T04:43:05;5.03;;;3.25;;
18796;SDS011;9526;52.612;13.300;2023-06-14T04:45:29;6.65;;;3.72;;
18796;SDS011;9526;52.612;13.300;2023-06-14T04:47:55;5.57;;;3.50;;
18796;SDS011;9526;52.612;13.300;2023-06-14T04:50:22;4.80;;;3.67;;
18796;SDS011;9526;52.612;13.300;2023-06-14T04:52:46;8.35;;;4.03;;
18796;SDS011;9526;52.612;13.300;2023-06-14T04:55:13;5.55;;;3.67;;
18796;SDS011;9526;52.612;13.300;2023-06-14T04:57:37;4.95;;;3.47;;
18796;SDS011;9526;52.612;13.300;2023-06-14T05:00:03;6.78;;;3.75;;
18796;SDS011;9526;52.612;13.300;2023-06-14T05:02:33;6.20;;;3.53;;
18796;SDS011;9526;52.612;13.300;2023-06-14T05:05:01;6.18;;;3.90;;
18796;SDS011;9526;52.612;13.300;2023-06-14T05:07:24;6.68;;;3.97;;
18796;SDS011;9526;52.612;13.300;2023-06-14T05:09:48;7.40;;;3.72;;
18796;SDS011;9526;52.612;13.300;2023-06-14T05:12:12;5.65;;;3.80;;
18796;SDS011;9526;52.612;13.300;2023-06-14T05:14:39;8.65;;;3.72;;
18796;SDS011;9526;52.612;13.300;2023-06-14T05:17:04;5.78;;;3.78;;
18796;SDS011;9526;52.612;13.300;2023-06-14T05:19:28;10.40;;;4.30;;
18796;SDS011;9526;52.612;13.300;2023-06-14T05:21:53;5.95;;;3.95;;
18796;SDS011;9526;52.612;13.300;2023-06-14T05:24:17;6.50;;;3.95;;
18796;SDS011;9526;52.612;13.300;2023-06-14T05:26:41;7.88;;;3.70;;
18796;SDS011;9526;52.612;13.300;2023-06-14T05:29:05;5.38;;;3.70;;
18796;SDS011;9526;52.612;13.300;2023-06-14T05:31:29;5.00;;;4.07;;
18796;SDS011;9526;52.612;13.300;2023-06-14T05:33:53;6.75;;;4.05;;
18796;SDS011;9526;52.612;13.300;2023-06-14T05:36:17;6.00;;;3.65;;
18796;SDS011;9526;52.612;13.300;2023-06-14T05:38:42;5.22;;;3.35;;
18796;SDS011;9526;52.612;13.300;2023-06-14T05:41:06;7.55;;;3.60;;
18796;SDS011;9526;52.612;13.300;2023-06-14T05:43:30;5.47;;;3.92;;
18796;SDS011;9526;52.612;13.300;2023-06-14T05:45:53;4.75;;;3.63;;
18796;SDS011;9526;52.612;13.300;2023-06-14T05:48:17;5.28;;;3.42;;
18796;SDS011;9526;52.612;13.300;2023-06-14T05:50:41;5.50;;;3.50;;
18796;SDS011;9526;52.612;13.300;2023-06-14T05:53:04;6.07;;;3.90;;
18796;SDS011;9526;52.612;13.300;2023-06-14T05:55:29;7.47;;;3.75;;
18796;SDS011;9526;52.612;13.300;2023-06-14T05:57:53;4.80;;;3.55;;
18796;SDS011;9526;52.612;13.300;2023-06-14T06:00:17;5.47;;;3.28;;
18796;SDS011;9526;52.612;13.300;2023-06-14T06:02:42;5.50;;;3.50;;
18796;SDS011;9526;52.612;13.300;2023-06-14T06:05:07;5.32;;;3.42;;
18796;SDS011;9526;52.612;13.300;2023-06-14T06:07:31;6.90;;;3.60;;
18796;SDS011;9526;52.612;13.300;2023-06-14T06:09:58;7.90;;;3.83;;
18796;SDS011;9526;52.612;13.300;2023-06-14T06:12:23;5.43;;;3.40;;
18796;SDS011;9526;52.612;13.300;2023-06-14T06:14:47;5.40;;;3.33;;
18796;SDS011;9526;52.612;13.300;2023-06-14T06:17:10;6.43;;;3.60;;
18796;SDS011;9526;52.612;13.300;2023-06-14T06:19:34;7.30;;;3.50;;
18796;SDS011;9526;52.612;13.300;2023-06-14T06:21:58;6.47;;;3.50;;
18796;SDS011;9526;52.612;13.300;2023-06-14T06:24:21;6.40;;;3.75;;
18796;SDS011;9526;52.612;13.300;2023-06-14T06:26:45;4.38;;;3.30;;
18796;SDS011;9526;52.612;13.300;2023-06-14T06:29:11;5.05;;;3.42;;
18796;SDS011;9526;52.612;13.300;2023-06-14T06:31:34;5.43;;;3.53;;
18796;SDS011;9526;52.612;13.300;2023-06-14T06:33:58;4.55;;;3.45;;
18796;SDS011;9526;52.612;13.300;2023-06-14T06:36:22;5.47;;;3.30;;
18796;SDS011;9526;52.612;13.300;2023-06-14T06:38:46;4.20;;;3.20;;
18796;SDS011;9526;52.612;13.300;2023-06-14T06:41:10;8.80;;;3.95;;
18796;SDS011;9526;52.612;13.300;2023-06-14T06:43:33;7.72;;;3.70;;
18796;SDS011;9526;52.612;13.300;2023-06-14T06:45:58;5.15;;;3.97;;
18796;SDS011;9526;52.612;13.300;2023-06-14T06:48:22;7.85;;;3.88;;
18796;SDS011;9526;52.612;13.300;2023-06-14T06:50:46;4.53;;;3.33;;
18796;SDS011;9526;52.612;13.300;2023-06-14T06:53:09;6.43;;;3.38;;
18796;SDS011;9526;52.612;13.300;2023-06-14T06:55:38;8.57;;;3.75;;
18796;SDS011;9526;52.612;13.300;2023-06-14T06:58:02;5.97;;;3.42;;
18796;SDS011;9526;52.612;13.300;2023-06-14T07:00:26;6.43;;;4.10;;
18796;SDS011;9526;52.612;13.300;2023-06-14T07:02:52;5.28;;;3.05;;
18796;SDS011;9526;52.612;13.300;2023-06-14T07:05:16;5.53;;;3.65;;
18796;SDS011;9526;52.612;13.300;2023-06-14T07:07:40;4.07;;;3.10;;
18796;SDS011;9526;52.612;13.300;2023-06-14T07:10:04;6.03;;;3.50;;
18796;SDS011;9526;52.612;13.300;2023-06-14T07:12:29;4.53;;;3.63;;
18796;SDS011;9526;52.612;13.300;2023-06-14T07:14:55;5.25;;;3.75;;
18796;SDS011;9526;52.612;13.300;2023-06-14T07:17:20;4.47;;;3.20;;
18796;SDS011;9526;52.612;13.300;2023-06-14T07:19:45;5.88;;;3.22;;
18796;SDS011;9526;52.612;13.300;2023-06-14T07:22:11;4.05;;;3.10;;
18796;SDS011;9526;52.612;13.300;2023-06-14T07:24:35;6.00;;;3.03;;
18796;SDS011;9526;52.612;13.300;2023-06-14T07:26:59;4.10;;;3.22;;
18796;SDS011;9526;52.612;13.300;2023-06-14T07:29:24;4.53;;;3.08;;
18796;SDS011;9526;52.612;13.300;2023-06-14T07:31:49;5.53;;;3.55;;
18796;SDS011;9526;52.612;13.300;2023-06-14T07:34:13;5.13;;;3.10;;
18796;SDS011;9526;52.612;13.300;2023-06-14T07:36:38;4.03;;;3.08;;
18796;SDS011;9526;52.612;13.300;2023-06-14T07:39:02;6.85;;;3.45;;
18796;SDS011;9526;52.612;13.300;2023-06-14T07:41:27;7.68;;;3.33;;
18796;SDS011;9526;52.612;13.300;2023-06-14T07:43:51;4.65;;;3.30;;
18796;SDS011;9526;52.612;13.300;2023-06-14T07:46:15;6.40;;;3.30;;
18796;SDS011;9526;52.612;13.300;2023-06-14T07:48:38;5.40;;;3.50;;
18796;SDS011;9526;52.612;13.300;2023-06-14T07:51:03;4.20;;;3.20;;
18796;SDS011;9526;52.612;13.300;2023-06-14T07:53:28;5.03;;;3.40;;
18796;SDS011;9526;52.612;13.300;2023-06-14T07:55:52;5.20;;;3.30;;
18796;SDS011;9526;52.612;13.300;2023-06-14T07:58:16;5.20;;;3.58;;
18796;SDS011;9526;52.612;13.300;2023-06-14T08:00:39;6.18;;;3.42;;
18796;SDS011;9526;52.612;13.300;2023-06-14T08:03:03;5.43;;;3.15;;
18796;SDS011;9526;52.612;13.300;2023-06-14T08:05:27;5.55;;;3.13;;
18796;SDS011;9526;52.612;13.300;2023-06-14T08:07:51;5.28;;;3.55;;
18796;SDS011;9526;52.612;13.300;2023-06-14T08:10:16;3.90;;;3.03;;
18796;SDS011;9526;52.612;13.300;2023-06-14T08:12:40;3.80;;;3.20;;
18796;SDS011;9526;52.612;13.300;2023-06-14T08:15:04;6.20;;;3.55;;
18796;SDS011;9526;52.612;13.300;2023-06-14T08:17:35;4.50;;;3.40;;
18796;SDS011;9526;52.612;13.300;2023-06-14T08:19:59;3.45;;;2.85;;
18796;SDS011;9526;52.612;13.300;2023-06-14T08:22:22;4.40;;;3.25;;
18796;SDS011;9526;52.612;13.300;2023-06-14T08:24:49;3.92;;;2.97;;
18796;SDS011;9526;52.612;13.300;2023-06-14T08:27:16;5.97;;;2.97;;
18796;SDS011;9526;52.612;13.300;2023-06-14T08:29:39;4.60;;;3.00;;
18796;SDS011;9526;52.612;13.300;2023-06-14T08:32:03;3.72;;;2.90;;
18796;SDS011;9526;52.612;13.300;2023-06-14T08:34:28;4.00;;;2.83;;
18796;SDS011;9526;52.612;13.300;2023-06-14T08:36:51;4.13;;;3.15;;
18796;SDS011;9526;52.612;13.300;2023-06-14T08:39:15;4.43;;;2.78;;
18796;SDS011;9526;52.612;13.300;2023-06-14T08:41:39;4.35;;;3.00;;
18796;SDS011;9526;52.612;13.300;2023-06-14T08:44:04;4.40;;;3.00;;
18796;SDS011;9526;52.612;13.300;2023-06-14T08:46:29;3.15;;;2.83;;
18796;SDS011;9526;52.612;13.300;2023-06-14T08:48:56;4.32;;;2.80;;
18796;SDS011;9526;52.612;13.300;2023-06-14T08:51:20;3.63;;;2.88;;
18796;SDS011;9526;52.612;13.300;2023-06-14T08:53:49;2.53;;;2.05;;
18796;SDS011;9526;52.612;13.300;2023-06-14T08:56:19;4.95;;;2.78;;
18796;SDS011;9526;52.612;13.300;2023-06-14T08:58:43;4.20;;;2.70;;
18796;SDS011;9526;52.612;13.300;2023-06-14T09:01:09;4.20;;;3.28;;
18796;SDS011;9526;52.612;13.300;2023-06-14T09:03:36;3.88;;;2.78;;
18796;SDS011;9526;52.612;13.300;2023-06-14T09:06:02;5.38;;;2.92;;
18796;SDS011;9526;52.612;13.300;2023-06-14T09:08:26;4.07;;;2.50;;
18796;SDS011;9526;52.612;13.300;2023-06-14T09:10:52;4.20;;;3.00;;
18796;SDS011;9526;52.612;13.300;2023-06-14T09:13:16;5.15;;;2.80;;
18796;SDS011;9526;52.612;13.300;2023-06-14T09:15:40;3.97;;;2.78;;
18796;SDS011;9526;52.612;13.300;2023-06-14T09:18:06;3.90;;;2.70;;
18796;SDS011;9526;52.612;13.300;2023-06-14T09:20:30;3.92;;;2.70;;
18796;SDS011;9526;52.612;13.300;2023-06-14T09:22:54;5.03;;;2.83;;
18796;SDS011;9526;52.612;13.300;2023-06-14T09:25:18;3.95;;;2.60;;
18796;SDS011;9526;52.612;13.300;2023-06-14T09:27:59;4.95;;;2.60;;
18796;SDS011;9526;52.612;13.300;2023-06-14T09:30:23;4.50;;;2.60;;
18796;SDS011;9526;52.612;13.300;2023-06-14T09:32:47;3.75;;;2.60;;
18796;SDS011;9526;52.612;13.300;2023-06-14T09:35:12;5.50;;;3.08;;
18796;SDS011;9526;52.612;13.300;2023-06-14T09:37:40;7.80;;;3.15;;
18796;SDS011;9526;52.612;13.300;2023-06-14T09:40:05;4.75;;;3.33;;
18796;SDS011;9526;52.612;13.300;2023-06-14T09:42:30;3.40;;;2.55;;
18796;SDS011;9526;52.612;13.300;2023-06-14T09:44:57;7.05;;;3.08;;
18796;SDS011;9526;52.612;13.300;2023-06-14T09:47:21;4.85;;;2.95;;
18796;SDS011;9526;52.612;13.300;2023-06-14T09:49:46;5.00;;;2.80;;
18796;SDS011;9526;52.612;13.300;2023-06-14T09:52:13;4.32;;;3.05;;
18796;SDS011;9526;52.612;13.300;2023-06-14T09:54:40;4.90;;;2.60;;
18796;SDS011;9526;52.612;13.300;2023-06-14T09:57:07;4.28;;;2.70;;
18796;SDS011;9526;52.612;13.300;2023-06-14T09:59:33;3.05;;;2.15;;
18796;SDS011;9526;52.612;13.300;2023-06-14T10:01:58;5.55;;;3.13;;
18796;SDS011;9526;52.612;13.300;2023-06-14T10:04:30;7.85;;;3.47;;
18796;SDS011;9526;52.612;13.300;2023-06-14T10:06:56;4.40;;;3.33;;
18796;SDS011;9526;52.612;13.300;2023-06-14T10:09:22;3.65;;;2.80;;
18796;SDS011;9526;52.612;13.300;2023-06-14T10:11:46;5.65;;;3.17;;
18796;SDS011;9526;52.612;13.300;2023-06-14T10:14:10;4.55;;;3.03;;
18796;SDS011;9526;52.612;13.300;2023-06-14T10:16:37;5.32;;;3.10;;
18796;SDS011;9526;52.612;13.300;2023-06-14T10:19:13;3.83;;;2.40;;
18796;SDS011;9526;52.612;13.300;2023-06-14T10:21:44;3.63;;;2.47;;
18796;SDS011;9526;52.612;13.300;2023-06-14T10:24:17;3.63;;;2.60;;
18796;SDS011;9526;52.612;13.300;2023-06-14T10:26:54;4.55;;;3.00;;
18796;SDS011;9526;52.612;13.300;2023-06-14T10:29:21;3.95;;;2.75;;
18796;SDS011;9526;52.612;13.300;2023-06-14T10:31:45;6.25;;;3.15;;
18796;SDS011;9526;52.612;13.300;2023-06-14T10:34:10;6.20;;;3.08;;
18796;SDS011;9526;52.612;13.300;2023-06-14T10:36:35;4.57;;;2.80;;
18796;SDS011;9526;52.612;13.300;2023-06-14T10:39:00;4.18;;;2.47;;
18796;SDS011;9526;52.612;13.300;2023-06-14T10:41:28;5.63;;;3.05;;
18796;SDS011;9526;52.612;13.300;2023-06-14T10:43:54;4.47;;;2.95;;
18796;SDS011;9526;52.612;13.300;2023-06-14T10:47:06;8.20;;;2.58;;
18796;SDS011;9526;52.612;13.300;2023-06-14T10:49:39;4.32;;;2.45;;
18796;SDS011;9526;52.612;13.300;2023-06-14T10:52:07;4.85;;;2.53;;
18796;SDS011;9526;52.612;13.300;2023-06-14T10:54:55;4.15;;;2.97;;
18796;SDS011;9526;52.612;13.300;2023-06-14T10:57:33;6.28;;;3.10;;
18796;SDS011;9526;52.612;13.300;2023-06-14T11:00:02;3.03;;;2.70;;
18796;SDS011;9526;52.612;13.300;2023-06-14T11:02:42;6.07;;;2.80;;
18796;SDS011;9526;52.612;13.300;2023-06-14T11:05:20;4.90;;;2.50;;
18796;SDS011;9526;52.612;13.300;2023-06-14T11:07:52;4.13;;;2.42;;
18796;SDS011;9526;52.612;13.300;2023-06-14T11:10:35;4.60;;;2.88;;
18796;SDS011;9526;52.612;13.300;2023-06-14T11:13:00;4.45;;;2.22;;
18796;SDS011;9526;52.612;13.300;2023-06-14T11:15:29;4.32;;;2.72;;
18796;SDS011;9526;52.612;13.300;2023-06-14T11:17:53;2.95;;;2.08;;
18796;SDS011;9526;52.612;13.300;2023-06-14T11:20:19;3.42;;;2.25;;
18796;SDS011;9526;52.612;13.300;2023-06-14T11:22:45;4.55;;;2.30;;
18796;SDS011;9526;52.612;13.300;2023-06-14T11:25:11;3.47;;;2.60;;
18796;SDS011;9526;52.612;13.300;2023-06-14T11:27:36;3.58;;;2.10;;
18796;SDS011;9526;52.612;13.300;2023-06-14T11:29:59;2.75;;;2.15;;
18796;SDS011;9526;52.612;13.300;2023-06-14T11:32:25;3.63;;;2.53;;
18796;SDS011;9526;52.612;13.300;2023-06-14T11:34:48;4.75;;;2.65;;
18796;SDS011;9526;52.612;13.300;2023-06-14T11:37:13;2.90;;;2.40;;
18796;SDS011;9526;52.612;13.300;2023-06-14T11:39:37;3.70;;;2.28;;
18796;SDS011;9526;52.612;13.300;2023-06-14T11:42:07;3.65;;;2.30;;
18796;SDS011;9526;52.612;13.300;2023-06-14T11:44:31;3.08;;;2.30;;
18796;SDS011;9526;52.612;13.300;2023-06-14T11:46:56;3.25;;;2.30;;
18796;SDS011;9526;52.612;13.300;2023-06-14T11:49:21;3.70;;;2.10;;
18796;SDS011;9526;52.612;13.300;2023-06-14T11:51:46;4.43;;;2.08;;
18796;SDS011;9526;52.612;13.300;2023-06-14T11:54:09;3.10;;;2.28;;
18796;SDS011;9526;52.612;13.300;2023-06-14T11:56:34;2.58;;;2.00;;
18796;SDS011;9526;52.612;13.300;2023-06-14T11:58:59;4.10;;;2.35;;
18796;SDS011;9526;52.612;13.300;2023-06-14T12:01:29;4.07;;;2.72;;
18796;SDS011;9526;52.612;13.300;2023-06-14T12:03:54;2.50;;;2.30;;
18796;SDS011;9526;52.612;13.300;2023-06-14T12:06:26;3.97;;;2.65;;
18796;SDS011;9526;52.612;13.300;2023-06-14T12:08:55;3.40;;;2.33;;
18796;SDS011;9526;52.612;13.300;2023-06-14T12:11:19;6.35;;;2.67;;
18796;SDS011;9526;52.612;13.300;2023-06-14T12:13:43;4.05;;;2.10;;
18796;SDS011;9526;52.612;13.300;2023-06-14T12:16:07;4.18;;;2.35;;
18796;SDS011;9526;52.612;13.300;2023-06-14T12:18:32;4.10;;;2.38;;
18796;SDS011;9526;52.612;13.300;2023-06-14T12:20:58;2.92;;;2.20;;
18796;SDS011;9526;52.612;13.300;2023-06-14T12:23:25;3.60;;;2.33;;
18796;SDS011;9526;52.612;13.300;2023-06-14T12:25:49;3.13;;;2.40;;
18796;SDS011;9526;52.612;13.300;2023-06-14T12:28:14;3.92;;;2.50;;
18796;SDS011;9526;52.612;13.300;2023-06-14T12:30:38;3.95;;;2.60;;
18796;SDS011;9526;52.612;13.300;2023-06-14T12:33:02;3.10;;;2.53;;
18796;SDS011;9526;52.612;13.300;2023-06-14T12:35:28;6.45;;;2.30;;
18796;SDS011;9526;52.612;13.300;2023-06-14T12:37:52;2.78;;;2.15;;
18796;SDS011;9526;52.612;13.300;2023-06-14T12:40:17;4.28;;;2.58;;
18796;SDS011;9526;52.612;13.300;2023-06-14T12:42:41;2.70;;;2.10;;
18796;SDS011;9526;52.612;13.300;2023-06-14T12:45:09;4.20;;;2.35;;
18796;SDS011;9526;52.612;13.300;2023-06-14T12:47:33;2.78;;;2.13;;
18796;SDS011;9526;52.612;13.300;2023-06-14T12:49:57;4.38;;;2.03;;
18796;SDS011;9526;52.612;13.300;2023-06-14T12:52:21;2.92;;;2.50;;
18796;SDS011;9526;52.612;13.300;2023-06-14T12:54:44;3.20;;;2.25;;
18796;SDS011;9526;52.612;13.300;2023-06-14T12:57:10;2.85;;;1.90;;
18796;SDS011;9526;52.612;13.300;2023-06-14T12:59:33;2.35;;;1.90;;
18796;SDS011;9526;52.612;13.300;2023-06-14T13:01:57;4.03;;;2.33;;
18796;SDS011;9526;52.612;13.300;2023-06-14T13:04:21;3.58;;;2.50;;
18796;SDS011;9526;52.612;13.300;2023-06-14T13:06:45;4.15;;;2.63;;
18796;SDS011;9526;52.612;13.300;2023-06-14T13:09:09;2.90;;;2.00;;
18796;SDS011;9526;52.612;13.300;2023-06-14T13:11:34;2.95;;;2.03;;
18796;SDS011;9526;52.612;13.300;2023-06-14T13:14:01;2.45;;;2.00;;
18796;SDS011;9526;52.612;13.300;2023-06-14T13:16:44;2.20;;;1.88;;
18796;SDS011;9526;52.612;13.300;2023-06-14T13:19:08;2.58;;;1.70;;
18796;SDS011;9526;52.612;13.300;2023-06-14T13:21:32;2.65;;;2.15;;
18796;SDS011;9526;52.612;13.300;2023-06-14T13:23:56;2.38;;;1.80;;
18796;SDS011;9526;52.612;13.300;2023-06-14T13:26:19;2.65;;;2.17;;
18796;SDS011;9526;52.612;13.300;2023-06-14T13:28:43;3.03;;;2.03;;
18796;SDS011;9526;52.612;13.300;2023-06-14T13:31:08;2.45;;;1.58;;
18796;SDS011;9526;52.612;13.300;2023-06-14T13:33:32;3.30;;;2.10;;
18796;SDS011;9526;52.612;13.300;2023-06-14T13:35:56;3.33;;;2.08;;
18796;SDS011;9526;52.612;13.300;2023-06-14T13:38:19;3.63;;;2.00;;
18796;SDS011;9526;52.612;13.300;2023-06-14T13:40:43;2.17;;;1.65;;
18796;SDS011;9526;52.612;13.300;2023-06-14T13:43:07;2.85;;;1.80;;
18796;SDS011;9526;52.612;13.300;2023-06-14T13:45:31;1.95;;;1.75;;
18796;SDS011;9526;52.612;13.300;2023-06-14T13:47:56;3.10;;;1.83;;
18796;SDS011;9526;52.612;13.300;2023-06-14T13:50:20;2.75;;;2.00;;
18796;SDS011;9526;52.612;13.300;2023-06-14T13:52:44;3.45;;;2.30;;
18796;SDS011;9526;52.612;13.300;2023-06-14T13:55:08;7.05;;;1.90;;
18796;SDS011;9526;52.612;13.300;2023-06-14T13:57:32;3.50;;;1.77;;
18796;SDS011;9526;52.612;13.300;2023-06-14T13:59:55;4.43;;;2.25;;
18796;SDS011;9526;52.612;13.300;2023-06-14T14:02:32;3.00;;;2.05;;
18796;SDS011;9526;52.612;13.300;2023-06-14T14:04:57;4.47;;;2.03;;
18796;SDS011;9526;52.612;13.300;2023-06-14T14:07:21;3.67;;;1.90;;
18796;SDS011;9526;52.612;13.300;2023-06-14T14:09:45;2.72;;;1.98;;
18796;SDS011;9526;52.612;13.300;2023-06-14T14:12:09;2.42;;;2.22;;
18796;SDS011;9526;52.612;13.300;2023-06-14T14:14:33;3.20;;;2.25;;
18796;SDS011;9526;52.612;13.300;2023-06-14T14:16:56;3.00;;;2.10;;
18796;SDS011;9526;52.612;13.300;2023-06-14T14:19:20;5.13;;;2.03;;
18796;SDS011;9526;52.612;13.300;2023-06-14T14:21:46;3.97;;;2.00;;
18796;SDS011;9526;52.612;13.300;2023-06-14T14:24:10;3.08;;;2.10;;
18796;SDS011;9526;52.612;13.300;2023-06-14T14:26:34;2.92;;;1.83;;
18796;SDS011;9526;52.612;13.300;2023-06-14T14:28:58;4.95;;;1.77;;
18796;SDS011;9526;52.612;13.300;2023-06-14T14:31:22;3.13;;;2.20;;
18796;SDS011;9526;52.612;13.300;2023-06-14T14:33:45;3.75;;;2.05;;
18796;SDS011;9526;52.612;13.300;2023-06-14T14:36:09;3.75;;;2.10;;
18796;SDS011;9526;52.612;13.300;2023-06-14T14:38:35;5.55;;;2.20;;